sensor_id;sensor_type;location;lat;lon;timestamp;P1;durP1;ratioP1;P2;durP2;ratioP2
75935;SDS011;64614;32.062;34.834;2024-02-21T00:01:30;9.60;;;5.00;;
75935;SDS011;64614;32.062;34.834;2024-02-21T00:03:55;7.82;;;4.82;;
75935;SDS011;64614;32.062;34.834;2024-02-21T00:06:21;8.13;;;4.55;;
75935;SDS011;64614;32.062;34.834;2024-02-21T00:08:55;7.70;;;4.63;;
75935;SDS011;64614;32.062;34.834;2024-02-21T00:11:21;8.27;;;4.88;;
75935;SDS011;64614;32.062;34.834;2024-02-21T00:13:47;8.50;;;4.75;;
75935;SDS011;64614;32.062;34.834;2024-02-21T00:16:13;8.80;;;4.80;;
75935;SDS011;64614;32.062;34.834;2024-02-21T00:18:40;10.25;;;4.90;;
75935;SDS011;64614;32.062;34.834;2024-02-21T00:21:06;7.63;;;4.50;;
75935;SDS011;64614;32.062;34.834;2024-02-21T00:23:32;8.57;;;4.80;;
75935;SDS011;64614;32.062;34.834;2024-02-21T00:25:58;8.55;;;4.88;;
75935;SDS011;64614;32.062;34.834;2024-02-21T00:28:24;9.25;;;5.05;;
75935;SDS011;64614;32.062;34.834;2024-02-21T00:30:50;9.15;;;4.68;;
75935;SDS011;64614;32.062;34.834;2024-02-21T00:33:19;8.18;;;4.40;;
75935;SDS011;64614;32.062;34.834;2024-02-21T00:35:44;8.80;;;4.82;;
75935;SDS011;64614;32.062;34.834;2024-02-21T00:38:10;7.93;;;4.93;;
75935;SDS011;64614;32.062;34.834;2024-02-21T00:40:36;9.00;;;4.28;;
75935;SDS011;64614;32.062;34.834;2024-02-21T00:43:05;8.20;;;4.60;;
75935;SDS011;64614;32.062;34.834;2024-02-21T00:45:31;9.57;;;4.82;;
75935;SDS011;64614;32.062;34.834;2024-02-21T00:47:56;10.02;;;5.15;;
75935;SDS011;64614;32.062;34.834;2024-02-21T00:50:25;8.38;;;4.45;;
75935;SDS011;64614;32.062;34.834;2024-02-21T00:52:51;8.38;;;4.70;;
75935;SDS011;64614;32.062;34.834;2024-02-21T00:55:16;8.45;;;4.93;;
75935;SDS011;64614;32.062;34.834;2024-02-21T00:57:42;9.35;;;4.80;;
75935;SDS011;64614;32.062;34.834;2024-02-21T01:00:14;8.00;;;4.53;;
75935;SDS011;64614;32.062;34.834;2024-02-21T01:02:40;7.80;;;4.47;;
75935;SDS011;64614;32.062;34.834;2024-02-21T01:05:06;8.70;;;4.85;;
75935;SDS011;64614;32.062;34.834;2024-02-21T01:07:32;8.70;;;4.50;;
75935;SDS011;64614;32.062;34.834;2024-02-21T01:09:58;7.95;;;4.32;;
75935;SDS011;64614;32.062;34.834;2024-02-21T01:12:23;8.65;;;4.72;;
75935;SDS011;64614;32.062;34.834;2024-02-21T01:14:49;8.55;;;4.97;;
75935;SDS011;64614;32.062;34.834;2024-02-21T01:17:15;8.55;;;4.35;;
75935;SDS011;64614;32.062;34.834;2024-02-21T01:19:41;7.70;;;4.22;;
75935;SDS011;64614;32.062;34.834;2024-02-21T01:22:06;8.57;;;5.05;;
75935;SDS011;64614;32.062;34.834;2024-02-21T01:24:32;8.52;;;4.88;;
75935;SDS011;64614;32.062;34.834;2024-02-21T01:26:58;8.25;;;4.30;;
75935;SDS011;64614;32.062;34.834;2024-02-21T01:29:24;7.40;;;4.20;;
75935;SDS011;64614;32.062;34.834;2024-02-21T01:31:49;8.15;;;4.22;;
75935;SDS011;64614;32.062;34.834;2024-02-21T01:34:15;7.00;;;4.07;;
75935;SDS011;64614;32.062;34.834;2024-02-21T01:36:41;7.85;;;4.18;;
75935;SDS011;64614;32.062;34.834;2024-02-21T01:39:07;8.18;;;4.15;;
75935;SDS011;64614;32.062;34.834;2024-02-21T01:41:33;8.55;;;4.35;;
75935;SDS011;64614;32.062;34.834;2024-02-21T01:43:58;9.43;;;4.50;;
75935;SDS011;64614;32.062;34.834;2024-02-21T01:46:25;8.02;;;4.45;;
75935;SDS011;64614;32.062;34.834;2024-02-21T01:48:56;8.98;;;4.35;;
75935;SDS011;64614;32.062;34.834;2024-02-21T01:51:23;9.90;;;4.82;;
75935;SDS011;64614;32.062;34.834;2024-02-21T01:53:50;8.02;;;4.40;;
75935;SDS011;64614;32.062;34.834;2024-02-21T01:56:17;7.85;;;4.25;;
75935;SDS011;64614;32.062;34.834;2024-02-21T01:58:43;8.02;;;4.60;;
75935;SDS011;64614;32.062;34.834;2024-02-21T02:01:10;8.70;;;4.50;;
75935;SDS011;64614;32.062;34.834;2024-02-21T02:03:36;7.60;;;4.30;;
75935;SDS011;64614;32.062;34.834;2024-02-21T02:06:03;8.25;;;3.78;;
75935;SDS011;64614;32.062;34.834;2024-02-21T02:08:30;7.55;;;4.40;;
75935;SDS011;64614;32.062;34.834;2024-02-21T02:10:57;7.68;;;4.30;;
75935;SDS011;64614;32.062;34.834;2024-02-21T02:13:29;8.40;;;4.22;;
75935;SDS011;64614;32.062;34.834;2024-02-21T02:15:55;8.07;;;4.50;;
75935;SDS011;64614;32.062;34.834;2024-02-21T02:18:20;9.48;;;4.45;;
75935;SDS011;64614;32.062;34.834;2024-02-21T02:20:47;8.50;;;4.53;;
75935;SDS011;64614;32.062;34.834;2024-02-21T02:23:34;8.35;;;4.70;;
75935;SDS011;64614;32.062;34.834;2024-02-21T02:26:00;7.60;;;3.88;;
75935;SDS011;64614;32.062;34.834;2024-02-21T02:28:26;7.18;;;4.15;;
75935;SDS011;64614;32.062;34.834;2024-02-21T02:30:52;7.80;;;4.30;;
75935;SDS011;64614;32.062;34.834;2024-02-21T02:33:19;8.18;;;4.00;;
75935;SDS011;64614;32.062;34.834;2024-02-21T02:35:44;7.28;;;4.20;;
75935;SDS011;64614;32.062;34.834;2024-02-21T02:38:19;7.20;;;3.90;;
75935;SDS011;64614;32.062;34.834;2024-02-21T02:40:44;8.18;;;3.72;;
75935;SDS011;64614;32.062;34.834;2024-02-21T02:43:10;7.07;;;4.15;;
75935;SDS011;64614;32.062;34.834;2024-02-21T02:45:36;7.53;;;4.18;;
75935;SDS011;64614;32.062;34.834;2024-02-21T02:48:02;6.97;;;3.95;;
75935;SDS011;64614;32.062;34.834;2024-02-21T02:50:38;7.85;;;4.60;;
75935;SDS011;64614;32.062;34.834;2024-02-21T02:53:04;7.93;;;3.90;;
75935;SDS011;64614;32.062;34.834;2024-02-21T02:55:29;8.48;;;4.40;;
75935;SDS011;64614;32.062;34.834;2024-02-21T02:57:55;7.32;;;3.85;;
75935;SDS011;64614;32.062;34.834;2024-02-21T03:00:21;7.82;;;4.00;;
75935;SDS011;64614;32.062;34.834;2024-02-21T03:02:59;7.93;;;4.03;;
75935;SDS011;64614;32.062;34.834;2024-02-21T03:05:26;7.32;;;3.90;;
75935;SDS011;64614;32.062;34.834;2024-02-21T03:07:52;8.15;;;3.65;;
75935;SDS011;64614;32.062;34.834;2024-02-21T03:10:17;7.68;;;4.45;;
75935;SDS011;64614;32.062;34.834;2024-02-21T03:12:43;7.43;;;3.97;;
75935;SDS011;64614;32.062;34.834;2024-02-21T03:15:09;7.30;;;3.92;;
75935;SDS011;64614;32.062;34.834;2024-02-21T03:17:35;7.13;;;3.65;;
75935;SDS011;64614;32.062;34.834;2024-02-21T03:20:04;8.05;;;4.20;;
75935;SDS011;64614;32.062;34.834;2024-02-21T03:22:31;7.32;;;3.88;;
75935;SDS011;64614;32.062;34.834;2024-02-21T03:25:08;7.35;;;3.90;;
75935;SDS011;64614;32.062;34.834;2024-02-21T03:27:35;6.28;;;3.30;;
75935;SDS011;64614;32.062;34.834;2024-02-21T03:30:00;8.32;;;3.80;;
75935;SDS011;64614;32.062;34.834;2024-02-21T03:32:26;6.47;;;3.65;;
75935;SDS011;64614;32.062;34.834;2024-02-21T03:34:53;6.78;;;3.63;;
75935;SDS011;64614;32.062;34.834;2024-02-21T03:37:20;8.05;;;3.80;;
75935;SDS011;64614;32.062;34.834;2024-02-21T03:39:45;7.22;;;3.50;;
75935;SDS011;64614;32.062;34.834;2024-02-21T03:42:11;7.63;;;3.63;;
75935;SDS011;64614;32.062;34.834;2024-02-21T03:44:37;7.28;;;3.63;;
75935;SDS011;64614;32.062;34.834;2024-02-21T03:47:02;8.32;;;4.03;;
75935;SDS011;64614;32.062;34.834;2024-02-21T03:49:28;6.60;;;3.53;;
75935;SDS011;64614;32.062;34.834;2024-02-21T03:51:54;7.72;;;3.70;;
75935;SDS011;64614;32.062;34.834;2024-02-21T03:54:20;8.38;;;3.92;;
75935;SDS011;64614;32.062;34.834;2024-02-21T03:56:45;7.82;;;3.50;;
75935;SDS011;64614;32.062;34.834;2024-02-21T03:59:17;8.68;;;3.80;;
75935;SDS011;64614;32.062;34.834;2024-02-21T04:01:42;7.50;;;3.90;;
75935;SDS011;64614;32.062;34.834;2024-02-21T04:04:09;7.35;;;3.58;;
75935;SDS011;64614;32.062;34.834;2024-02-21T04:06:35;6.85;;;3.63;;
75935;SDS011;64614;32.062;34.834;2024-02-21T04:09:04;7.90;;;3.83;;
75935;SDS011;64614;32.062;34.834;2024-02-21T04:11:30;6.85;;;3.47;;
75935;SDS011;64614;32.062;34.834;2024-02-21T04:13:56;6.13;;;3.13;;
75935;SDS011;64614;32.062;34.834;2024-02-21T04:16:21;6.50;;;3.83;;
75935;SDS011;64614;32.062;34.834;2024-02-21T04:18:47;6.30;;;3.22;;
75935;SDS011;64614;32.062;34.834;2024-02-21T04:21:16;6.30;;;3.20;;
75935;SDS011;64614;32.062;34.834;2024-02-21T04:23:42;6.82;;;2.92;;
75935;SDS011;64614;32.062;34.834;2024-02-21T04:26:08;6.20;;;3.00;;
75935;SDS011;64614;32.062;34.834;2024-02-21T04:28:34;5.65;;;3.10;;
75935;SDS011;64614;32.062;34.834;2024-02-21T04:31:00;6.10;;;3.25;;
75935;SDS011;64614;32.062;34.834;2024-02-21T04:33:25;6.20;;;3.15;;
75935;SDS011;64614;32.062;34.834;2024-02-21T04:35:51;5.60;;;2.90;;
75935;SDS011;64614;32.062;34.834;2024-02-21T04:38:22;6.68;;;3.30;;
75935;SDS011;64614;32.062;34.834;2024-02-21T04:40:48;5.63;;;2.80;;
75935;SDS011;64614;32.062;34.834;2024-02-21T04:43:14;8.73;;;3.42;;
75935;SDS011;64614;32.062;34.834;2024-02-21T04:45:39;7.82;;;3.63;;
75935;SDS011;64614;32.062;34.834;2024-02-21T04:48:05;7.38;;;3.20;;
75935;SDS011;64614;32.062;34.834;2024-02-21T04:50:30;7.53;;;3.30;;
75935;SDS011;64614;32.062;34.834;2024-02-21T04:52:56;6.55;;;3.38;;
75935;SDS011;64614;32.062;34.834;2024-02-21T04:55:22;9.32;;;3.53;;
75935;SDS011;64614;32.062;34.834;2024-02-21T04:57:48;8.40;;;3.40;;
75935;SDS011;64614;32.062;34.834;2024-02-21T05:00:14;7.80;;;3.20;;
75935;SDS011;64614;32.062;34.834;2024-02-21T05:02:39;8.30;;;3.45;;
75935;SDS011;64614;32.062;34.834;2024-02-21T05:05:06;7.57;;;3.20;;
75935;SDS011;64614;32.062;34.834;2024-02-21T05:07:34;8.40;;;3.42;;
75935;SDS011;64614;32.062;34.834;2024-02-21T05:10:00;8.02;;;3.35;;
75935;SDS011;64614;32.062;34.834;2024-02-21T05:14:51;6.82;;;3.40;;
75935;SDS011;64614;32.062;34.834;2024-02-21T05:17:16;8.07;;;3.33;;
75935;SDS011;64614;32.062;34.834;2024-02-21T05:19:48;7.30;;;3.10;;
75935;SDS011;64614;32.062;34.834;2024-02-21T05:22:14;7.38;;;3.58;;
75935;SDS011;64614;32.062;34.834;2024-02-21T05:24:40;9.20;;;3.60;;
75935;SDS011;64614;32.062;34.834;2024-02-21T05:27:05;8.27;;;3.22;;
75935;SDS011;64614;32.062;34.834;2024-02-21T05:29:31;8.20;;;3.47;;
75935;SDS011;64614;32.062;34.834;2024-02-21T05:31:59;8.60;;;3.63;;
75935;SDS011;64614;32.062;34.834;2024-02-21T05:34:28;11.88;;;3.70;;
75935;SDS011;64614;32.062;34.834;2024-02-21T05:36:56;6.85;;;3.38;;
75935;SDS011;64614;32.062;34.834;2024-02-21T05:39:24;8.02;;;3.72;;
75935;SDS011;64614;32.062;34.834;2024-02-21T05:41:50;9.40;;;4.00;;
75935;SDS011;64614;32.062;34.834;2024-02-21T05:44:16;9.88;;;4.15;;
75935;SDS011;64614;32.062;34.834;2024-02-21T05:46:42;11.15;;;4.25;;
75935;SDS011;64614;32.062;34.834;2024-02-21T05:49:07;12.15;;;4.15;;
75935;SDS011;64614;32.062;34.834;2024-02-21T05:51:33;9.80;;;4.05;;
75935;SDS011;64614;32.062;34.834;2024-02-21T05:53:59;9.80;;;3.95;;
75935;SDS011;64614;32.062;34.834;2024-02-21T05:56:25;11.25;;;4.50;;
75935;SDS011;64614;32.062;34.834;2024-02-21T05:58:51;9.90;;;4.13;;
75935;SDS011;64614;32.062;34.834;2024-02-21T06:01:16;10.60;;;4.60;;
75935;SDS011;64614;32.062;34.834;2024-02-21T06:03:43;10.57;;;4.55;;
75935;SDS011;64614;32.062;34.834;2024-02-21T06:06:09;10.13;;;4.45;;
75935;SDS011;64614;32.062;34.834;2024-02-21T06:08:34;11.45;;;4.30;;
75935;SDS011;64614;32.062;34.834;2024-02-21T06:11:03;12.23;;;4.93;;
75935;SDS011;64614;32.062;34.834;2024-02-21T06:13:31;8.20;;;4.25;;
75935;SDS011;64614;32.062;34.834;2024-02-21T06:15:58;8.77;;;4.10;;
75935;SDS011;64614;32.062;34.834;2024-02-21T06:18:24;11.13;;;4.25;;
75935;SDS011;64614;32.062;34.834;2024-02-21T06:21:16;9.30;;;4.50;;
75935;SDS011;64614;32.062;34.834;2024-02-21T06:23:42;9.00;;;4.40;;
75935;SDS011;64614;32.062;34.834;2024-02-21T06:26:07;8.40;;;4.40;;
75935;SDS011;64614;32.062;34.834;2024-02-21T06:28:45;8.80;;;3.65;;
75935;SDS011;64614;32.062;34.834;2024-02-21T06:31:12;8.63;;;4.20;;
75935;SDS011;64614;32.062;34.834;2024-02-21T06:33:37;9.48;;;3.95;;
75935;SDS011;64614;32.062;34.834;2024-02-21T06:51:34;7.78;;;3.78;;
75935;SDS011;64614;32.062;34.834;2024-02-21T06:54:02;8.35;;;3.50;;
75935;SDS011;64614;32.062;34.834;2024-02-21T06:56:28;7.53;;;3.80;;
75935;SDS011;64614;32.062;34.834;2024-02-21T06:58:57;8.15;;;3.80;;
75935;SDS011;64614;32.062;34.834;2024-02-21T07:01:26;7.40;;;3.70;;
75935;SDS011;64614;32.062;34.834;2024-02-21T07:03:51;8.15;;;3.55;;
75935;SDS011;64614;32.062;34.834;2024-02-21T07:06:17;8.40;;;4.05;;
75935;SDS011;64614;32.062;34.834;2024-02-21T07:08:43;8.27;;;3.97;;
75935;SDS011;64614;32.062;34.834;2024-02-21T07:11:10;10.10;;;4.30;;
75935;SDS011;64614;32.062;34.834;2024-02-21T07:13:37;10.55;;;4.28;;
75935;SDS011;64614;32.062;34.834;2024-02-21T07:16:05;10.40;;;4.28;;
75935;SDS011;64614;32.062;34.834;2024-02-21T07:21:15;11.00;;;4.75;;
75935;SDS011;64614;32.062;34.834;2024-02-21T07:23:41;10.43;;;4.68;;
75935;SDS011;64614;32.062;34.834;2024-02-21T07:28:37;10.38;;;4.35;;
75935;SDS011;64614;32.062;34.834;2024-02-21T07:31:04;8.82;;;3.90;;
75935;SDS011;64614;32.062;34.834;2024-02-21T07:33:30;10.40;;;4.07;;
75935;SDS011;64614;32.062;34.834;2024-02-21T07:35:56;9.05;;;3.80;;
75935;SDS011;64614;32.062;34.834;2024-02-21T07:38:21;7.65;;;3.38;;
75935;SDS011;64614;32.062;34.834;2024-02-21T07:40:51;6.55;;;2.80;;
75935;SDS011;64614;32.062;34.834;2024-02-21T07:43:20;8.15;;;3.20;;
75935;SDS011;64614;32.062;34.834;2024-02-21T07:45:47;5.93;;;2.67;;
75935;SDS011;64614;32.062;34.834;2024-02-21T07:48:13;7.20;;;2.95;;
75935;SDS011;64614;32.062;34.834;2024-02-21T07:50:38;6.28;;;2.33;;
75935;SDS011;64614;32.062;34.834;2024-02-21T07:53:04;6.53;;;2.78;;
75935;SDS011;64614;32.062;34.834;2024-02-21T07:55:30;5.80;;;2.70;;
75935;SDS011;64614;32.062;34.834;2024-02-21T07:57:55;6.85;;;2.58;;
75935;SDS011;64614;32.062;34.834;2024-02-21T08:00:24;6.28;;;2.80;;
75935;SDS011;64614;32.062;34.834;2024-02-21T08:02:49;7.03;;;3.00;;
75935;SDS011;64614;32.062;34.834;2024-02-21T08:05:15;6.10;;;2.67;;
75935;SDS011;64614;32.062;34.834;2024-02-21T08:07:41;6.25;;;2.63;;
75935;SDS011;64614;32.062;34.834;2024-02-21T08:10:07;6.53;;;2.67;;
75935;SDS011;64614;32.062;34.834;2024-02-21T08:12:33;6.32;;;2.67;;
75935;SDS011;64614;32.062;34.834;2024-02-21T08:14:59;5.13;;;2.53;;
75935;SDS011;64614;32.062;34.834;2024-02-21T08:17:25;4.47;;;2.45;;
75935;SDS011;64614;32.062;34.834;2024-02-21T08:19:51;5.35;;;2.63;;
75935;SDS011;64614;32.062;34.834;2024-02-21T08:22:17;4.85;;;2.55;;
75935;SDS011;64614;32.062;34.834;2024-02-21T08:24:42;5.43;;;2.47;;
75935;SDS011;64614;32.062;34.834;2024-02-21T08:27:08;5.65;;;2.10;;
75935;SDS011;64614;32.062;34.834;2024-02-21T08:29:34;5.22;;;2.30;;
75935;SDS011;64614;32.062;34.834;2024-02-21T08:31:59;5.97;;;2.42;;
75935;SDS011;64614;32.062;34.834;2024-02-21T08:34:25;4.13;;;2.20;;
75935;SDS011;64614;32.062;34.834;2024-02-21T08:36:50;4.13;;;2.33;;
75935;SDS011;64614;32.062;34.834;2024-02-21T08:39:16;5.45;;;2.08;;
75935;SDS011;64614;32.062;34.834;2024-02-21T08:41:42;3.95;;;2.20;;
75935;SDS011;64614;32.062;34.834;2024-02-21T08:44:08;5.45;;;2.55;;
75935;SDS011;64614;32.062;34.834;2024-02-21T08:46:33;4.90;;;2.35;;
75935;SDS011;64614;32.062;34.834;2024-02-21T08:48:59;6.32;;;2.60;;
75935;SDS011;64614;32.062;34.834;2024-02-21T08:51:25;8.23;;;2.75;;
75935;SDS011;64614;32.062;34.834;2024-02-21T08:53:55;5.90;;;2.50;;
75935;SDS011;64614;32.062;34.834;2024-02-21T08:56:20;6.65;;;2.33;;
75935;SDS011;64614;32.062;34.834;2024-02-21T08:58:46;5.40;;;2.50;;
75935;SDS011;64614;32.062;34.834;2024-02-21T09:01:12;5.45;;;2.13;;
75935;SDS011;64614;32.062;34.834;2024-02-21T09:03:37;5.30;;;2.20;;
75935;SDS011;64614;32.062;34.834;2024-02-21T09:06:04;4.93;;;2.30;;
75935;SDS011;64614;32.062;34.834;2024-02-21T09:08:31;5.30;;;2.55;;
75935;SDS011;64614;32.062;34.834;2024-02-21T09:10:57;4.10;;;2.10;;
75935;SDS011;64614;32.062;34.834;2024-02-21T09:13:23;5.47;;;2.20;;
75935;SDS011;64614;32.062;34.834;2024-02-21T09:15:49;5.32;;;1.95;;
75935;SDS011;64614;32.062;34.834;2024-02-21T09:18:15;4.75;;;2.08;;
75935;SDS011;64614;32.062;34.834;2024-02-21T09:20:42;6.53;;;2.40;;
75935;SDS011;64614;32.062;34.834;2024-02-21T09:23:08;3.47;;;2.00;;
75935;SDS011;64614;32.062;34.834;2024-02-21T09:25:34;5.35;;;2.47;;
75935;SDS011;64614;32.062;34.834;2024-02-21T09:28:00;5.85;;;2.25;;
75935;SDS011;64614;32.062;34.834;2024-02-21T09:30:29;4.07;;;2.10;;
75935;SDS011;64614;32.062;34.834;2024-02-21T09:32:56;5.07;;;2.33;;
75935;SDS011;64614;32.062;34.834;2024-02-21T09:35:24;5.93;;;2.17;;
75935;SDS011;64614;32.062;34.834;2024-02-21T09:37:52;6.18;;;2.20;;
75935;SDS011;64614;32.062;34.834;2024-02-21T09:40:18;4.47;;;2.20;;
75935;SDS011;64614;32.062;34.834;2024-02-21T09:42:44;5.60;;;2.00;;
75935;SDS011;64614;32.062;34.834;2024-02-21T09:45:22;8.98;;;2.15;;
75935;SDS011;64614;32.062;34.834;2024-02-21T09:50:14;4.28;;;2.10;;
75935;SDS011;64614;32.062;34.834;2024-02-21T09:52:40;4.03;;;2.00;;
75935;SDS011;64614;32.062;34.834;2024-02-21T09:55:08;4.90;;;2.05;;
75935;SDS011;64614;32.062;34.834;2024-02-21T09:57:37;5.15;;;2.30;;
75935;SDS011;64614;32.062;34.834;2024-02-21T10:00:04;3.08;;;1.70;;
75935;SDS011;64614;32.062;34.834;2024-02-21T10:02:33;4.57;;;2.05;;
75935;SDS011;64614;32.062;34.834;2024-02-21T10:04:59;4.72;;;2.00;;
75935;SDS011;64614;32.062;34.834;2024-02-21T10:07:26;5.10;;;1.90;;
75935;SDS011;64614;32.062;34.834;2024-02-21T10:10:03;5.43;;;2.10;;
75935;SDS011;64614;32.062;34.834;2024-02-21T10:12:29;3.45;;;1.80;;
75935;SDS011;64614;32.062;34.834;2024-02-21T10:15:04;4.63;;;2.13;;
75935;SDS011;64614;32.062;34.834;2024-02-21T10:17:34;4.20;;;2.25;;
75935;SDS011;64614;32.062;34.834;2024-02-21T10:20:10;5.50;;;2.38;;
75935;SDS011;64614;32.062;34.834;2024-02-21T10:22:38;5.90;;;2.50;;
75935;SDS011;64614;32.062;34.834;2024-02-21T10:25:11;4.40;;;2.20;;
75935;SDS011;64614;32.062;34.834;2024-02-21T10:27:38;4.43;;;2.10;;
75935;SDS011;64614;32.062;34.834;2024-02-21T10:30:07;5.13;;;2.40;;
75935;SDS011;64614;32.062;34.834;2024-02-21T10:32:48;4.53;;;2.15;;
75935;SDS011;64614;32.062;34.834;2024-02-21T10:35:29;5.47;;;2.53;;
75935;SDS011;64614;32.062;34.834;2024-02-21T10:37:56;4.90;;;2.10;;
75935;SDS011;64614;32.062;34.834;2024-02-21T10:40:26;5.72;;;2.58;;
75935;SDS011;64614;32.062;34.834;2024-02-21T10:43:02;5.90;;;2.45;;
75935;SDS011;64614;32.062;34.834;2024-02-21T10:48:16;5.72;;;2.67;;
75935;SDS011;64614;32.062;34.834;2024-02-21T10:53:44;4.72;;;2.20;;
75935;SDS011;64614;32.062;34.834;2024-02-21T10:59:01;5.55;;;2.30;;
75935;SDS011;64614;32.062;34.834;2024-02-21T11:01:28;6.32;;;2.35;;
75935;SDS011;64614;32.062;34.834;2024-02-21T11:03:57;4.50;;;2.25;;
75935;SDS011;64614;32.062;34.834;2024-02-21T11:06:26;5.95;;;2.85;;
75935;SDS011;64614;32.062;34.834;2024-02-21T11:11:28;5.07;;;2.33;;
75935;SDS011;64614;32.062;34.834;2024-02-21T11:14:03;6.78;;;2.50;;
75935;SDS011;64614;32.062;34.834;2024-02-21T11:16:50;7.00;;;2.72;;
75935;SDS011;64614;32.062;34.834;2024-02-21T11:19:19;6.03;;;2.80;;
75935;SDS011;64614;32.062;34.834;2024-02-21T11:21:47;5.65;;;2.70;;
75935;SDS011;64614;32.062;34.834;2024-02-21T11:24:13;7.00;;;2.85;;
75935;SDS011;64614;32.062;34.834;2024-02-21T11:26:39;5.25;;;2.53;;
75935;SDS011;64614;32.062;34.834;2024-02-21T11:29:08;4.75;;;2.20;;
75935;SDS011;64614;32.062;34.834;2024-02-21T11:31:42;5.90;;;2.30;;
75935;SDS011;64614;32.062;34.834;2024-02-21T11:34:11;4.53;;;2.10;;
75935;SDS011;64614;32.062;34.834;2024-02-21T11:36:50;4.30;;;2.22;;
75935;SDS011;64614;32.062;34.834;2024-02-21T11:39:24;4.93;;;2.55;;
75935;SDS011;64614;32.062;34.834;2024-02-21T11:42:00;5.13;;;2.55;;
75935;SDS011;64614;32.062;34.834;2024-02-21T11:44:26;4.93;;;2.30;;
75935;SDS011;64614;32.062;34.834;2024-02-21T11:46:51;5.03;;;2.50;;
75935;SDS011;64614;32.062;34.834;2024-02-21T11:49:17;5.78;;;2.40;;
75935;SDS011;64614;32.062;34.834;2024-02-21T11:51:43;5.30;;;2.33;;
75935;SDS011;64614;32.062;34.834;2024-02-21T11:54:08;4.88;;;2.20;;
75935;SDS011;64614;32.062;34.834;2024-02-21T11:56:38;5.38;;;2.28;;
75935;SDS011;64614;32.062;34.834;2024-02-21T11:59:04;5.80;;;2.60;;
75935;SDS011;64614;32.062;34.834;2024-02-21T12:01:31;4.40;;;2.20;;
75935;SDS011;64614;32.062;34.834;2024-02-21T12:03:58;5.28;;;2.58;;
75935;SDS011;64614;32.062;34.834;2024-02-21T12:06:24;5.75;;;2.20;;
75935;SDS011;64614;32.062;34.834;2024-02-21T12:08:49;5.35;;;2.55;;
75935;SDS011;64614;32.062;34.834;2024-02-21T12:11:24;5.45;;;2.58;;
75935;SDS011;64614;32.062;34.834;2024-02-21T12:14:02;5.10;;;2.38;;
75935;SDS011;64614;32.062;34.834;2024-02-21T12:16:30;4.97;;;2.20;;
75935;SDS011;64614;32.062;34.834;2024-02-21T12:18:57;5.82;;;2.45;;
75935;SDS011;64614;32.062;34.834;2024-02-21T12:21:26;4.00;;;2.10;;
75935;SDS011;64614;32.062;34.834;2024-02-21T12:23:55;4.20;;;2.00;;
75935;SDS011;64614;32.062;34.834;2024-02-21T12:26:24;3.88;;;2.10;;
75935;SDS011;64614;32.062;34.834;2024-02-21T12:28:50;3.85;;;2.00;;
75935;SDS011;64614;32.062;34.834;2024-02-21T12:31:17;3.67;;;1.90;;
75935;SDS011;64614;32.062;34.834;2024-02-21T12:33:43;3.92;;;2.17;;
75935;SDS011;64614;32.062;34.834;2024-02-21T12:36:09;4.30;;;2.10;;
75935;SDS011;64614;32.062;34.834;2024-02-21T12:38:35;4.22;;;2.17;;
75935;SDS011;64614;32.062;34.834;2024-02-21T12:41:01;4.38;;;2.10;;
75935;SDS011;64614;32.062;34.834;2024-02-21T12:43:27;4.65;;;2.30;;
75935;SDS011;64614;32.062;34.834;2024-02-21T12:45:52;4.50;;;2.33;;
75935;SDS011;64614;32.062;34.834;2024-02-21T12:48:18;5.20;;;2.30;;
75935;SDS011;64614;32.062;34.834;2024-02-21T12:50:53;4.32;;;2.22;;
75935;SDS011;64614;32.062;34.834;2024-02-21T12:53:21;5.25;;;2.30;;
75935;SDS011;64614;32.062;34.834;2024-02-21T12:55:48;4.68;;;2.40;;
75935;SDS011;64614;32.062;34.834;2024-02-21T12:58:14;3.83;;;2.20;;
75935;SDS011;64614;32.062;34.834;2024-02-21T13:00:40;4.18;;;2.20;;
75935;SDS011;64614;32.062;34.834;2024-02-21T13:03:06;4.13;;;2.00;;
75935;SDS011;64614;32.062;34.834;2024-02-21T13:05:32;5.32;;;2.15;;
75935;SDS011;64614;32.062;34.834;2024-02-21T13:08:00;3.50;;;1.90;;
75935;SDS011;64614;32.062;34.834;2024-02-21T13:10:26;3.47;;;2.15;;
75935;SDS011;64614;32.062;34.834;2024-02-21T13:12:51;4.18;;;1.95;;
75935;SDS011;64614;32.062;34.834;2024-02-21T13:15:17;4.50;;;2.13;;
75935;SDS011;64614;32.062;34.834;2024-02-21T13:17:46;3.50;;;2.03;;
75935;SDS011;64614;32.062;34.834;2024-02-21T13:20:11;4.75;;;2.20;;
75935;SDS011;64614;32.062;34.834;2024-02-21T13:22:37;5.10;;;2.20;;
75935;SDS011;64614;32.062;34.834;2024-02-21T13:25:03;4.20;;;1.90;;
75935;SDS011;64614;32.062;34.834;2024-02-21T13:27:32;4.07;;;2.00;;
75935;SDS011;64614;32.062;34.834;2024-02-21T13:29:58;4.07;;;2.10;;
75935;SDS011;64614;32.062;34.834;2024-02-21T13:32:23;4.90;;;2.10;;
75935;SDS011;64614;32.062;34.834;2024-02-21T13:34:51;5.00;;;1.98;;
75935;SDS011;64614;32.062;34.834;2024-02-21T13:37:17;3.72;;;2.10;;
75935;SDS011;64614;32.062;34.834;2024-02-21T13:39:43;3.67;;;1.88;;
75935;SDS011;64614;32.062;34.834;2024-02-21T13:42:09;4.60;;;2.03;;
75935;SDS011;64614;32.062;34.834;2024-02-21T13:44:35;4.55;;;2.22;;
75935;SDS011;64614;32.062;34.834;2024-02-21T13:47:01;4.05;;;2.00;;
75935;SDS011;64614;32.062;34.834;2024-02-21T13:49:27;4.55;;;2.08;;
75935;SDS011;64614;32.062;34.834;2024-02-21T13:51:53;4.82;;;2.00;;
75935;SDS011;64614;32.062;34.834;2024-02-21T13:54:19;4.00;;;2.08;;
75935;SDS011;64614;32.062;34.834;2024-02-21T13:56:46;4.50;;;1.73;;
75935;SDS011;64614;32.062;34.834;2024-02-21T13:59:12;3.92;;;1.98;;
75935;SDS011;64614;32.062;34.834;2024-02-21T14:04:06;4.10;;;2.05;;
75935;SDS011;64614;32.062;34.834;2024-02-21T14:06:32;4.25;;;2.15;;
75935;SDS011;64614;32.062;34.834;2024-02-21T14:08:58;4.20;;;1.90;;
75935;SDS011;64614;32.062;34.834;2024-02-21T14:11:23;5.00;;;2.05;;
75935;SDS011;64614;32.062;34.834;2024-02-21T14:13:49;5.53;;;2.20;;
75935;SDS011;64614;32.062;34.834;2024-02-21T14:16:14;3.20;;;1.95;;
75935;SDS011;64614;32.062;34.834;2024-02-21T14:18:40;4.47;;;1.90;;
75935;SDS011;64614;32.062;34.834;2024-02-21T14:21:07;4.03;;;1.90;;
75935;SDS011;64614;32.062;34.834;2024-02-21T14:23:36;3.55;;;2.00;;
75935;SDS011;64614;32.062;34.834;2024-02-21T14:26:02;3.72;;;2.00;;
75935;SDS011;64614;32.062;34.834;2024-02-21T14:28:29;5.22;;;1.98;;
75935;SDS011;64614;32.062;34.834;2024-02-21T14:30:54;4.13;;;2.13;;
75935;SDS011;64614;32.062;34.834;2024-02-21T14:33:25;3.30;;;1.90;;
75935;SDS011;64614;32.062;34.834;2024-02-21T14:35:51;4.53;;;2.10;;
75935;SDS011;64614;32.062;34.834;2024-02-21T14:38:17;4.03;;;2.10;;
75935;SDS011;64614;32.062;34.834;2024-02-21T14:40:45;4.18;;;2.00;;
75935;SDS011;64614;32.062;34.834;2024-02-21T14:43:10;3.95;;;2.00;;
75935;SDS011;64614;32.062;34.834;2024-02-21T14:45:36;4.22;;;1.92;;
75935;SDS011;64614;32.062;34.834;2024-02-21T14:48:03;3.30;;;1.80;;
75935;SDS011;64614;32.062;34.834;2024-02-21T14:50:29;4.20;;;2.30;;
75935;SDS011;64614;32.062;34.834;2024-02-21T14:52:55;4.00;;;2.13;;
75935;SDS011;64614;32.062;34.834;2024-02-21T14:55:21;4.43;;;1.90;;
75935;SDS011;64614;32.062;34.834;2024-02-21T14:57:46;5.07;;;2.05;;
75935;SDS011;64614;32.062;34.834;2024-02-21T15:00:13;5.10;;;1.95;;
75935;SDS011;64614;32.062;34.834;2024-02-21T15:02:39;5.15;;;2.13;;
75935;SDS011;64614;32.062;34.834;2024-02-21T15:05:05;3.30;;;1.70;;
75935;SDS011;64614;32.062;34.834;2024-02-21T15:07:31;3.60;;;1.88;;
75935;SDS011;64614;32.062;34.834;2024-02-21T15:09:58;4.82;;;2.28;;
75935;SDS011;64614;32.062;34.834;2024-02-21T15:12:24;4.57;;;2.15;;